sensor_id;sensor_type;location;lat;lon;timestamp;P1;durP1;ratioP1;P2;durP2;ratioP2
61962;SDS011;47927;42.646;23.096;2022-08-07T00:00:32;5.90;;;3.85;;
61962;SDS011;47927;42.646;23.096;2022-08-07T00:02:59;5.75;;;4.25;;
61962;SDS011;47927;42.646;23.096;2022-08-07T00:05:25;6.25;;;4.35;;
61962;SDS011;47927;42.646;23.096;2022-08-07T00:07:51;6.15;;;4.30;;
61962;SDS011;47927;42.646;23.096;2022-08-07T00:10:19;7.40;;;4.30;;
61962;SDS011;47927;42.646;23.096;2022-08-07T00:12:47;9.25;;;4.78;;
61962;SDS011;47927;42.646;23.096;2022-08-07T00:15:12;7.72;;;4.32;;
61962;SDS011;47927;42.646;23.096;2022-08-07T00:17:38;6.88;;;4.50;;
61962;SDS011;47927;42.646;23.096;2022-08-07T00:20:04;6.07;;;4.50;;
61962;SDS011;47927;42.646;23.096;2022-08-07T00:22:30;7.10;;;3.92;;
61962;SDS011;47927;42.646;23.096;2022-08-07T00:24:56;7.45;;;4.30;;
61962;SDS011;47927;42.646;23.096;2022-08-07T00:27:21;7.47;;;4.40;;
61962;SDS011;47927;42.646;23.096;2022-08-07T00:29:47;6.78;;;4.72;;
61962;SDS011;47927;42.646;23.096;2022-08-07T00:32:13;6.85;;;4.30;;
61962;SDS011;47927;42.646;23.096;2022-08-07T00:34:39;5.82;;;4.80;;
61962;SDS011;47927;42.646;23.096;2022-08-07T00:37:05;6.93;;;4.85;;
61962;SDS011;47927;42.646;23.096;2022-08-07T00:39:31;6.40;;;4.63;;
61962;SDS011;47927;42.646;23.096;2022-08-07T00:41:58;6.35;;;4.93;;
61962;SDS011;47927;42.646;23.096;2022-08-07T00:44:24;7.70;;;4.53;;
61962;SDS011;47927;42.646;23.096;2022-08-07T00:46:50;6.43;;;4.63;;
61962;SDS011;47927;42.646;23.096;2022-08-07T00:49:16;5.95;;;4.50;;
61962;SDS011;47927;42.646;23.096;2022-08-07T00:51:42;5.47;;;4.45;;
61962;SDS011;47927;42.646;23.096;2022-08-07T00:54:08;9.85;;;4.75;;
61962;SDS011;47927;42.646;23.096;2022-08-07T00:56:34;7.78;;;4.00;;
61962;SDS011;47927;42.646;23.096;2022-08-07T00:59:00;7.78;;;4.72;;
61962;SDS011;47927;42.646;23.096;2022-08-07T01:01:26;6.82;;;4.75;;
61962;SDS011;47927;42.646;23.096;2022-08-07T01:03:52;6.13;;;4.40;;
61962;SDS011;47927;42.646;23.096;2022-08-07T01:06:19;6.57;;;4.60;;
61962;SDS011;47927;42.646;23.096;2022-08-07T01:08:44;7.25;;;4.47;;
61962;SDS011;47927;42.646;23.096;2022-08-07T01:11:12;9.05;;;4.60;;
61962;SDS011;47927;42.646;23.096;2022-08-07T01:13:38;7.90;;;4.82;;
61962;SDS011;47927;42.646;23.096;2022-08-07T01:16:05;7.72;;;4.75;;
61962;SDS011;47927;42.646;23.096;2022-08-07T01:18:32;6.18;;;4.30;;
61962;SDS011;47927;42.646;23.096;2022-08-07T01:21:14;8.98;;;4.63;;
61962;SDS011;47927;42.646;23.096;2022-08-07T01:23:42;6.43;;;4.65;;
61962;SDS011;47927;42.646;23.096;2022-08-07T01:26:12;6.30;;;4.43;;
61962;SDS011;47927;42.646;23.096;2022-08-07T01:28:48;6.15;;;4.28;;
61962;SDS011;47927;42.646;23.096;2022-08-07T01:31:21;7.93;;;4.97;;
61962;SDS011;47927;42.646;23.096;2022-08-07T01:33:59;8.48;;;4.88;;
61962;SDS011;47927;42.646;23.096;2022-08-07T01:36:32;5.75;;;4.38;;
61962;SDS011;47927;42.646;23.096;2022-08-07T01:39:01;7.03;;;4.90;;
61962;SDS011;47927;42.646;23.096;2022-08-07T01:41:27;7.20;;;4.90;;
61962;SDS011;47927;42.646;23.096;2022-08-07T01:46:23;10.40;;;4.78;;
61962;SDS011;47927;42.646;23.096;2022-08-07T01:48:49;7.15;;;5.47;;
61962;SDS011;47927;42.646;23.096;2022-08-07T01:51:19;7.70;;;5.00;;
61962;SDS011;47927;42.646;23.096;2022-08-07T01:53:49;6.05;;;4.60;;
61962;SDS011;47927;42.646;23.096;2022-08-07T01:56:25;6.55;;;4.78;;
61962;SDS011;47927;42.646;23.096;2022-08-07T01:59:04;7.07;;;4.65;;
61962;SDS011;47927;42.646;23.096;2022-08-07T02:04:12;7.25;;;4.32;;
61962;SDS011;47927;42.646;23.096;2022-08-07T02:06:50;8.75;;;4.45;;
61962;SDS011;47927;42.646;23.096;2022-08-07T02:09:19;8.15;;;4.40;;
61962;SDS011;47927;42.646;23.096;2022-08-07T02:11:48;5.75;;;4.28;;
61962;SDS011;47927;42.646;23.096;2022-08-07T02:14:16;8.68;;;4.40;;
61962;SDS011;47927;42.646;23.096;2022-08-07T02:16:44;5.47;;;4.00;;
61962;SDS011;47927;42.646;23.096;2022-08-07T02:19:12;5.70;;;4.00;;
61962;SDS011;47927;42.646;23.096;2022-08-07T02:21:39;6.35;;;4.80;;
61962;SDS011;47927;42.646;23.096;2022-08-07T02:24:06;10.25;;;4.95;;
61962;SDS011;47927;42.646;23.096;2022-08-07T02:26:35;6.93;;;5.05;;
61962;SDS011;47927;42.646;23.096;2022-08-07T02:29:05;7.72;;;5.45;;
61962;SDS011;47927;42.646;23.096;2022-08-07T02:31:32;7.72;;;5.30;;
61962;SDS011;47927;42.646;23.096;2022-08-07T02:34:00;6.22;;;4.75;;
61962;SDS011;47927;42.646;23.096;2022-08-07T02:36:28;8.82;;;5.43;;
61962;SDS011;47927;42.646;23.096;2022-08-07T02:38:58;6.97;;;5.05;;
61962;SDS011;47927;42.646;23.096;2022-08-07T02:41:27;12.07;;;5.35;;
61962;SDS011;47927;42.646;23.096;2022-08-07T02:43:54;6.22;;;5.43;;
61962;SDS011;47927;42.646;23.096;2022-08-07T02:46:23;5.72;;;4.95;;
61962;SDS011;47927;42.646;23.096;2022-08-07T02:48:53;6.53;;;5.10;;
61962;SDS011;47927;42.646;23.096;2022-08-07T02:51:19;6.50;;;4.97;;
61962;SDS011;47927;42.646;23.096;2022-08-07T02:53:48;6.32;;;4.57;;
61962;SDS011;47927;42.646;23.096;2022-08-07T02:56:20;5.53;;;4.47;;
61962;SDS011;47927;42.646;23.096;2022-08-07T02:58:48;9.02;;;4.43;;
61962;SDS011;47927;42.646;23.096;2022-08-07T03:01:16;7.35;;;4.28;;
61962;SDS011;47927;42.646;23.096;2022-08-07T03:03:44;5.53;;;4.20;;
61962;SDS011;47927;42.646;23.096;2022-08-07T03:06:13;5.13;;;3.88;;
61962;SDS011;47927;42.646;23.096;2022-08-07T03:08:40;6.85;;;3.80;;
61962;SDS011;47927;42.646;23.096;2022-08-07T03:11:07;5.70;;;4.15;;
61962;SDS011;47927;42.646;23.096;2022-08-07T03:13:37;4.25;;;2.72;;
61962;SDS011;47927;42.646;23.096;2022-08-07T03:16:05;5.05;;;2.70;;
61962;SDS011;47927;42.646;23.096;2022-08-07T03:18:30;4.18;;;2.80;;
61962;SDS011;47927;42.646;23.096;2022-08-07T03:20:56;4.40;;;2.65;;
61962;SDS011;47927;42.646;23.096;2022-08-07T03:23:25;3.50;;;2.33;;
61962;SDS011;47927;42.646;23.096;2022-08-07T03:25:52;3.00;;;2.03;;
61962;SDS011;47927;42.646;23.096;2022-08-07T03:28:21;3.22;;;1.95;;
61962;SDS011;47927;42.646;23.096;2022-08-07T03:30:48;3.10;;;1.80;;
61962;SDS011;47927;42.646;23.096;2022-08-07T03:33:15;3.53;;;1.95;;
61962;SDS011;47927;42.646;23.096;2022-08-07T03:35:42;3.08;;;1.80;;
61962;SDS011;47927;42.646;23.096;2022-08-07T03:38:10;3.53;;;1.67;;
61962;SDS011;47927;42.646;23.096;2022-08-07T03:40:37;3.63;;;1.70;;
61962;SDS011;47927;42.646;23.096;2022-08-07T03:43:09;3.45;;;1.88;;
61962;SDS011;47927;42.646;23.096;2022-08-07T03:45:35;3.08;;;1.95;;
61962;SDS011;47927;42.646;23.096;2022-08-07T03:48:07;3.10;;;1.90;;
61962;SDS011;47927;42.646;23.096;2022-08-07T03:50:32;3.22;;;1.83;;
61962;SDS011;47927;42.646;23.096;2022-08-07T03:52:59;3.13;;;1.95;;
61962;SDS011;47927;42.646;23.096;2022-08-07T03:55:27;3.10;;;1.90;;
61962;SDS011;47927;42.646;23.096;2022-08-07T03:57:54;3.50;;;1.90;;
61962;SDS011;47927;42.646;23.096;2022-08-07T04:00:24;3.33;;;2.10;;
61962;SDS011;47927;42.646;23.096;2022-08-07T04:02:51;3.22;;;2.20;;
61962;SDS011;47927;42.646;23.096;2022-08-07T04:05:24;3.40;;;1.92;;
61962;SDS011;47927;42.646;23.096;2022-08-07T04:07:50;2.60;;;1.70;;
61962;SDS011;47927;42.646;23.096;2022-08-07T04:12:47;3.53;;;2.30;;
61962;SDS011;47927;42.646;23.096;2022-08-07T04:15:14;3.97;;;2.78;;
61962;SDS011;47927;42.646;23.096;2022-08-07T04:17:41;5.13;;;2.72;;
61962;SDS011;47927;42.646;23.096;2022-08-07T04:20:09;3.72;;;2.75;;
61962;SDS011;47927;42.646;23.096;2022-08-07T04:22:36;4.10;;;2.83;;
61962;SDS011;47927;42.646;23.096;2022-08-07T04:25:04;4.15;;;2.85;;
61962;SDS011;47927;42.646;23.096;2022-08-07T04:27:31;4.40;;;3.13;;
61962;SDS011;47927;42.646;23.096;2022-08-07T04:29:58;4.18;;;2.72;;
61962;SDS011;47927;42.646;23.096;2022-08-07T04:32:24;4.35;;;3.03;;
61962;SDS011;47927;42.646;23.096;2022-08-07T04:34:51;5.20;;;3.65;;
61962;SDS011;47927;42.646;23.096;2022-08-07T04:37:18;4.50;;;3.60;;
61962;SDS011;47927;42.646;23.096;2022-08-07T04:39:43;4.68;;;3.30;;
61962;SDS011;47927;42.646;23.096;2022-08-07T04:42:11;4.50;;;3.35;;
61962;SDS011;47927;42.646;23.096;2022-08-07T04:44:37;4.80;;;3.30;;
61962;SDS011;47927;42.646;23.096;2022-08-07T04:47:46;5.28;;;3.40;;
61962;SDS011;47927;42.646;23.096;2022-08-07T04:50:16;6.95;;;3.50;;
61962;SDS011;47927;42.646;23.096;2022-08-07T04:53:04;6.45;;;3.55;;
61962;SDS011;47927;42.646;23.096;2022-08-07T04:58:19;5.60;;;3.58;;
61962;SDS011;47927;42.646;23.096;2022-08-07T05:00:52;5.93;;;3.65;;
61962;SDS011;47927;42.646;23.096;2022-08-07T05:03:28;5.18;;;3.78;;
61962;SDS011;47927;42.646;23.096;2022-08-07T05:06:06;7.72;;;3.88;;
61962;SDS011;47927;42.646;23.096;2022-08-07T05:08:38;7.63;;;4.00;;
61962;SDS011;47927;42.646;23.096;2022-08-07T05:11:22;6.05;;;3.63;;
61962;SDS011;47927;42.646;23.096;2022-08-07T05:13:52;6.07;;;3.70;;
61962;SDS011;47927;42.646;23.096;2022-08-07T05:16:24;5.30;;;3.65;;
61962;SDS011;47927;42.646;23.096;2022-08-07T05:18:53;5.97;;;4.07;;
61962;SDS011;47927;42.646;23.096;2022-08-07T05:23:58;5.57;;;4.20;;
61962;SDS011;47927;42.646;23.096;2022-08-07T05:26:28;8.32;;;4.38;;
61962;SDS011;47927;42.646;23.096;2022-08-07T05:29:02;7.32;;;4.30;;
61962;SDS011;47927;42.646;23.096;2022-08-07T05:31:33;5.53;;;4.70;;
61962;SDS011;47927;42.646;23.096;2022-08-07T05:34:08;7.00;;;4.53;;
61962;SDS011;47927;42.646;23.096;2022-08-07T05:36:37;5.13;;;4.18;;
61962;SDS011;47927;42.646;23.096;2022-08-07T05:39:12;5.47;;;4.20;;
61962;SDS011;47927;42.646;23.096;2022-08-07T05:41:39;5.80;;;3.42;;
61962;SDS011;47927;42.646;23.096;2022-08-07T05:44:07;5.32;;;4.20;;
61962;SDS011;47927;42.646;23.096;2022-08-07T05:46:35;5.20;;;4.03;;
61962;SDS011;47927;42.646;23.096;2022-08-07T05:49:04;4.33;;;3.83;;
61962;SDS011;47927;42.646;23.096;2022-08-07T05:51:33;4.60;;;3.55;;
61962;SDS011;47927;42.646;23.096;2022-08-07T05:54:00;4.68;;;3.42;;
61962;SDS011;47927;42.646;23.096;2022-08-07T05:56:26;4.90;;;3.42;;
61962;SDS011;47927;42.646;23.096;2022-08-07T05:58:53;5.38;;;3.63;;
61962;SDS011;47927;42.646;23.096;2022-08-07T06:01:22;5.00;;;3.90;;
61962;SDS011;47927;42.646;23.096;2022-08-07T06:03:53;6.18;;;4.00;;
61962;SDS011;47927;42.646;23.096;2022-08-07T06:06:20;5.38;;;4.70;;
61962;SDS011;47927;42.646;23.096;2022-08-07T06:08:51;5.00;;;4.18;;
61962;SDS011;47927;42.646;23.096;2022-08-07T06:11:18;6.93;;;4.57;;
61962;SDS011;47927;42.646;23.096;2022-08-07T06:13:43;5.60;;;4.00;;
61962;SDS011;47927;42.646;23.096;2022-08-07T06:16:10;8.80;;;4.15;;
61962;SDS011;47927;42.646;23.096;2022-08-07T06:18:37;6.70;;;4.03;;
61962;SDS011;47927;42.646;23.096;2022-08-07T06:21:04;4.60;;;3.78;;
61962;SDS011;47927;42.646;23.096;2022-08-07T06:23:33;4.40;;;3.78;;
61962;SDS011;47927;42.646;23.096;2022-08-07T06:25:59;7.38;;;3.97;;
61962;SDS011;47927;42.646;23.096;2022-08-07T06:28:25;4.43;;;3.53;;
61962;SDS011;47927;42.646;23.096;2022-08-07T06:30:51;4.65;;;3.55;;
61962;SDS011;47927;42.646;23.096;2022-08-07T06:33:18;4.50;;;3.80;;
61962;SDS011;47927;42.646;23.096;2022-08-07T06:35:46;7.03;;;4.05;;
61962;SDS011;47927;42.646;23.096;2022-08-07T06:38:12;5.55;;;3.63;;
61962;SDS011;47927;42.646;23.096;2022-08-07T06:40:39;4.53;;;3.67;;
61962;SDS011;47927;42.646;23.096;2022-08-07T06:43:10;6.13;;;3.75;;
61962;SDS011;47927;42.646;23.096;2022-08-07T06:45:57;4.65;;;3.80;;
61962;SDS011;47927;42.646;23.096;2022-08-07T06:48:23;5.97;;;4.32;;
61962;SDS011;47927;42.646;23.096;2022-08-07T06:50:48;5.95;;;4.70;;
61962;SDS011;47927;42.646;23.096;2022-08-07T06:53:19;5.78;;;4.28;;
61962;SDS011;47927;42.646;23.096;2022-08-07T06:55:46;6.22;;;4.55;;
61962;SDS011;47927;42.646;23.096;2022-08-07T06:58:13;6.63;;;4.72;;
61962;SDS011;47927;42.646;23.096;2022-08-07T07:00:49;5.20;;;4.70;;
61962;SDS011;47927;42.646;23.096;2022-08-07T07:03:16;5.35;;;4.40;;
61962;SDS011;47927;42.646;23.096;2022-08-07T07:05:41;5.20;;;4.70;;
61962;SDS011;47927;42.646;23.096;2022-08-07T07:08:08;5.63;;;4.65;;
61962;SDS011;47927;42.646;23.096;2022-08-07T07:10:36;6.55;;;4.28;;
61962;SDS011;47927;42.646;23.096;2022-08-07T07:13:03;8.90;;;4.88;;
61962;SDS011;47927;42.646;23.096;2022-08-07T07:15:38;7.85;;;5.18;;
61962;SDS011;47927;42.646;23.096;2022-08-07T07:18:14;5.65;;;4.90;;
61962;SDS011;47927;42.646;23.096;2022-08-07T07:20:51;5.40;;;4.65;;
61962;SDS011;47927;42.646;23.096;2022-08-07T07:23:20;6.93;;;4.82;;
61962;SDS011;47927;42.646;23.096;2022-08-07T07:25:49;5.05;;;4.53;;
61962;SDS011;47927;42.646;23.096;2022-08-07T07:31:12;7.22;;;4.50;;
61962;SDS011;47927;42.646;23.096;2022-08-07T07:33:42;5.22;;;4.50;;
61962;SDS011;47927;42.646;23.096;2022-08-07T07:36:10;5.95;;;4.50;;
61962;SDS011;47927;42.646;23.096;2022-08-07T07:38:37;5.82;;;4.90;;
61962;SDS011;47927;42.646;23.096;2022-08-07T07:41:05;5.47;;;4.88;;
61962;SDS011;47927;42.646;23.096;2022-08-07T07:43:33;6.55;;;4.43;;
61962;SDS011;47927;42.646;23.096;2022-08-07T07:46:02;5.65;;;4.28;;
61962;SDS011;47927;42.646;23.096;2022-08-07T07:48:29;5.38;;;4.35;;
61962;SDS011;47927;42.646;23.096;2022-08-07T07:50:55;5.65;;;4.97;;
61962;SDS011;47927;42.646;23.096;2022-08-07T07:55:52;5.78;;;4.75;;
61962;SDS011;47927;42.646;23.096;2022-08-07T07:58:22;5.80;;;5.20;;
61962;SDS011;47927;42.646;23.096;2022-08-07T08:03:18;5.47;;;4.97;;
61962;SDS011;47927;42.646;23.096;2022-08-07T08:05:45;6.70;;;5.53;;
61962;SDS011;47927;42.646;23.096;2022-08-07T08:08:12;6.65;;;5.15;;
61962;SDS011;47927;42.646;23.096;2022-08-07T08:10:38;7.15;;;5.13;;
61962;SDS011;47927;42.646;23.096;2022-08-07T08:13:05;5.63;;;4.82;;
61962;SDS011;47927;42.646;23.096;2022-08-07T08:18:00;5.50;;;4.90;;
61962;SDS011;47927;42.646;23.096;2022-08-07T08:20:28;22.70;;;5.10;;
61962;SDS011;47927;42.646;23.096;2022-08-07T08:22:57;5.93;;;4.40;;
61962;SDS011;47927;42.646;23.096;2022-08-07T08:25:42;6.60;;;4.75;;
61962;SDS011;47927;42.646;23.096;2022-08-07T08:28:27;4.45;;;3.75;;
61962;SDS011;47927;42.646;23.096;2022-08-07T08:30:56;5.75;;;4.80;;
61962;SDS011;47927;42.646;23.096;2022-08-07T08:33:24;7.38;;;5.18;;
61962;SDS011;47927;42.646;23.096;2022-08-07T08:35:53;8.23;;;4.75;;
61962;SDS011;47927;42.646;23.096;2022-08-07T08:38:22;6.17;;;5.40;;
61962;SDS011;47927;42.646;23.096;2022-08-07T08:40:52;6.68;;;5.47;;
61962;SDS011;47927;42.646;23.096;2022-08-07T08:43:27;6.28;;;5.20;;
61962;SDS011;47927;42.646;23.096;2022-08-07T08:46:15;6.00;;;5.30;;
61962;SDS011;47927;42.646;23.096;2022-08-07T08:49:22;8.35;;;5.35;;
61962;SDS011;47927;42.646;23.096;2022-08-07T08:51:56;6.22;;;4.97;;
61962;SDS011;47927;42.646;23.096;2022-08-07T08:54:31;6.28;;;5.30;;
61962;SDS011;47927;42.646;23.096;2022-08-07T08:57:07;5.75;;;4.90;;
61962;SDS011;47927;42.646;23.096;2022-08-07T08:59:49;6.00;;;5.32;;
61962;SDS011;47927;42.646;23.096;2022-08-07T09:02:30;5.80;;;5.18;;
61962;SDS011;47927;42.646;23.096;2022-08-07T09:10:51;8.85;;;5.78;;
61962;SDS011;47927;42.646;23.096;2022-08-07T09:13:38;7.50;;;6.00;;
61962;SDS011;47927;42.646;23.096;2022-08-07T09:21:57;8.07;;;5.85;;
61962;SDS011;47927;42.646;23.096;2022-08-07T09:30:06;7.43;;;6.05;;
61962;SDS011;47927;42.646;23.096;2022-08-07T09:42:55;6.43;;;5.50;;
61962;SDS011;47927;42.646;23.096;2022-08-07T09:45:39;7.32;;;6.38;;
61962;SDS011;47927;42.646;23.096;2022-08-07T09:48:16;8.75;;;5.63;;
61962;SDS011;47927;42.646;23.096;2022-08-07T09:51:02;7.85;;;5.45;;
61962;SDS011;47927;42.646;23.096;2022-08-07T09:53:40;8.32;;;4.93;;
61962;SDS011;47927;42.646;23.096;2022-08-07T10:15:25;8.73;;;5.45;;
61962;SDS011;47927;42.646;23.096;2022-08-07T10:28:44;7.38;;;5.20;;
61962;SDS011;47927;42.646;23.096;2022-08-07T10:31:37;7.47;;;5.80;;
61962;SDS011;47927;42.646;23.096;2022-08-07T10:34:35;8.18;;;4.97;;
61962;SDS011;47927;42.646;23.096;2022-08-07T10:42:49;5.97;;;4.68;;
61962;SDS011;47927;42.646;23.096;2022-08-07T10:45:30;6.93;;;5.30;;
61962;SDS011;47927;42.646;23.096;2022-08-07T10:50:52;6.07;;;4.93;;
61962;SDS011;47927;42.646;23.096;2022-08-07T10:56:04;7.43;;;5.25;;
61962;SDS011;47927;42.646;23.096;2022-08-07T10:58:45;5.55;;;4.22;;
61962;SDS011;47927;42.646;23.096;2022-08-07T11:01:31;6.03;;;4.75;;
61962;SDS011;47927;42.646;23.096;2022-08-07T11:09:55;5.53;;;4.38;;
61962;SDS011;47927;42.646;23.096;2022-08-07T11:12:27;9.00;;;4.90;;
61962;SDS011;47927;42.646;23.096;2022-08-07T11:14:56;5.28;;;4.68;;
61962;SDS011;47927;42.646;23.096;2022-08-07T11:17:29;7.43;;;4.85;;
61962;SDS011;47927;42.646;23.096;2022-08-07T11:20:20;6.10;;;4.57;;
61962;SDS011;47927;42.646;23.096;2022-08-07T11:25:25;6.25;;;3.80;;
61962;SDS011;47927;42.646;23.096;2022-08-07T11:28:00;6.55;;;4.13;;
61962;SDS011;47927;42.646;23.096;2022-08-07T11:30:35;5.63;;;4.40;;
61962;SDS011;47927;42.646;23.096;2022-08-07T11:33:10;6.60;;;3.95;;
61962;SDS011;47927;42.646;23.096;2022-08-07T11:35:51;6.57;;;4.65;;
61962;SDS011;47927;42.646;23.096;2022-08-07T11:41:21;8.20;;;4.72;;
61962;SDS011;47927;42.646;23.096;2022-08-07T12:06:45;9.00;;;5.10;;
61962;SDS011;47927;42.646;23.096;2022-08-07T12:09:20;10.02;;;5.03;;
61962;SDS011;47927;42.646;23.096;2022-08-07T12:11:55;6.43;;;4.60;;
61962;SDS011;47927;42.646;23.096;2022-08-07T12:14:29;8.82;;;5.00;;
61962;SDS011;47927;42.646;23.096;2022-08-07T12:17:04;5.93;;;4.90;;
61962;SDS011;47927;42.646;23.096;2022-08-07T12:25:31;7.65;;;5.57;;
61962;SDS011;47927;42.646;23.096;2022-08-07T12:28:30;6.30;;;5.32;;
61962;SDS011;47927;42.646;23.096;2022-08-07T12:31:05;7.07;;;5.20;;
61962;SDS011;47927;42.646;23.096;2022-08-07T12:33:37;11.73;;;5.00;;
61962;SDS011;47927;42.646;23.096;2022-08-07T12:36:04;8.35;;;5.13;;
61962;SDS011;47927;42.646;23.096;2022-08-07T12:38:31;6.45;;;5.15;;
61962;SDS011;47927;42.646;23.096;2022-08-07T12:40:58;5.90;;;4.88;;
61962;SDS011;47927;42.646;23.096;2022-08-07T12:43:27;6.70;;;5.18;;
61962;SDS011;47927;42.646;23.096;2022-08-07T12:51:38;7.13;;;5.57;;
61962;SDS011;47927;42.646;23.096;2022-08-07T12:56:51;7.15;;;6.00;;
61962;SDS011;47927;42.646;23.096;2022-08-07T12:59:21;8.73;;;5.53;;
61962;SDS011;47927;42.646;23.096;2022-08-07T13:07:22;6.38;;;4.47;;
61962;SDS011;47927;42.646;23.096;2022-08-07T13:10:28;6.60;;;5.18;;
61962;SDS011;47927;42.646;23.096;2022-08-07T13:13:09;7.90;;;4.53;;
61962;SDS011;47927;42.646;23.096;2022-08-07T13:21:34;11.82;;;4.50;;
61962;SDS011;47927;42.646;23.096;2022-08-07T13:24:16;7.50;;;4.97;;
61962;SDS011;47927;42.646;23.096;2022-08-07T13:32:13;7.50;;;5.00;;
61962;SDS011;47927;42.646;23.096;2022-08-07T13:34:45;6.30;;;4.90;;
61962;SDS011;47927;42.646;23.096;2022-08-07T13:37:27;6.82;;;4.97;;
61962;SDS011;47927;42.646;23.096;2022-08-07T13:42:43;7.68;;;4.78;;
61962;SDS011;47927;42.646;23.096;2022-08-07T13:45:13;6.25;;;4.38;;
61962;SDS011;47927;42.646;23.096;2022-08-07T13:47:40;7.40;;;4.93;;
61962;SDS011;47927;42.646;23.096;2022-08-07T13:50:07;6.25;;;4.80;;
61962;SDS011;47927;42.646;23.096;2022-08-07T13:52:37;7.53;;;4.55;;
61962;SDS011;47927;42.646;23.096;2022-08-07T13:55:07;6.68;;;4.18;;
61962;SDS011;47927;42.646;23.096;2022-08-07T13:57:37;6.50;;;4.65;;
61962;SDS011;47927;42.646;23.096;2022-08-07T14:00:06;10.85;;;4.97;;
61962;SDS011;47927;42.646;23.096;2022-08-07T14:02:38;8.65;;;5.20;;
61962;SDS011;47927;42.646;23.096;2022-08-07T14:05:14;5.95;;;4.93;;
61962;SDS011;47927;42.646;23.096;2022-08-07T14:07:48;6.78;;;4.25;;
61962;SDS011;47927;42.646;23.096;2022-08-07T14:10:15;6.40;;;4.70;;
61962;SDS011;47927;42.646;23.096;2022-08-07T14:18:17;6.97;;;4.45;;
61962;SDS011;47927;42.646;23.096;2022-08-07T14:20:46;7.25;;;4.40;;
61962;SDS011;47927;42.646;23.096;2022-08-07T14:23:18;6.40;;;5.00;;
61962;SDS011;47927;42.646;23.096;2022-08-07T14:25:53;6.15;;;4.82;;
61962;SDS011;47927;42.646;23.096;2022-08-07T14:28:22;7.75;;;5.10;;
61962;SDS011;47927;42.646;23.096;2022-08-07T14:30:49;7.15;;;5.18;;
61962;SDS011;47927;42.646;23.096;2022-08-07T14:33:16;6.78;;;4.88;;
61962;SDS011;47927;42.646;23.096;2022-08-07T14:35:42;5.88;;;4.18;;
61962;SDS011;47927;42.646;23.096;2022-08-07T14:38:10;5.50;;;3.90;;
61962;SDS011;47927;42.646;23.096;2022-08-07T14:40:38;5.68;;;3.83;;
61962;SDS011;47927;42.646;23.096;2022-08-07T14:43:05;6.15;;;4.60;;
61962;SDS011;47927;42.646;23.096;2022-08-07T14:45:40;6.28;;;4.32;;
61962;SDS011;47927;42.646;23.096;2022-08-07T14:48:08;5.85;;;4.68;;
61962;SDS011;47927;42.646;23.096;2022-08-07T14:50:38;6.60;;;4.55;;
61962;SDS011;47927;42.646;23.096;2022-08-07T14:53:06;6.47;;;4.90;;
61962;SDS011;47927;42.646;23.096;2022-08-07T14:55:33;6.13;;;5.18;;
61962;SDS011;47927;42.646;23.096;2022-08-07T14:58:00;7.20;;;5.03;;
61962;SDS011;47927;42.646;23.096;2022-08-07T15:00:29;5.95;;;4.80;;
61962;SDS011;47927;42.646;23.096;2022-08-07T15:02:56;7.97;;;5.38;;
61962;SDS011;47927;42.646;23.096;2022-08-07T15:05:24;7.07;;;5.35;;
61962;SDS011;47927;42.646;23.096;2022-08-07T15:07:51;7.47;;;5.30;;
61962;SDS011;47927;42.646;23.096;2022-08-07T15:10:20;6.45;;;5.10;;
61962;SDS011;47927;42.646;23.096;2022-08-07T15:12:48;6.93;;;5.25;;
61962;SDS011;47927;42.646;23.096;2022-08-07T15:15:20;6.50;;;5.22;;
61962;SDS011;47927;42.646;23.096;2022-08-07T15:17:54;6.53;;;5.20;;
61962;SDS011;47927;42.646;23.096;2022-08-07T15:20:25;7.57;;;4.88;;
61962;SDS011;47927;42.646;23.096;2022-08-07T15:22:55;7.50;;;5.75;;
61962;SDS011;47927;42.646;23.096;2022-08-07T15:25:25;7.28;;;5.53;;
61962;SDS011;47927;42.646;23.096;2022-08-07T15:27:58;8.40;;;5.25;;
61962;SDS011;47927;42.646;23.096;2022-08-07T15:30:25;7.82;;;5.38;;
61962;SDS011;47927;42.646;23.096;2022-08-07T15:32:53;6.70;;;5.60;;
61962;SDS011;47927;42.646;23.096;2022-08-07T15:35:22;6.82;;;5.55;;
61962;SDS011;47927;42.646;23.096;2022-08-07T15:37:53;8.02;;;6.72;;
61962;SDS011;47927;42.646;23.096;2022-08-07T15:40:21;10.00;;;5.70;;
61962;SDS011;47927;42.646;23.096;2022-08-07T15:43:35;7.88;;;6.10;;
61962;SDS011;47927;42.646;23.096;2022-08-07T15:45:48;7.30;;;5.53;;
61962;SDS011;47927;42.646;23.096;2022-08-07T15:50:51;7.55;;;5.82;;
61962;SDS011;47927;42.646;23.096;2022-08-07T15:55:52;7.00;;;5.97;;
61962;SDS011;47927;42.646;23.096;2022-08-07T15:58:27;7.47;;;5.80;;
61962;SDS011;47927;42.646;23.096;2022-08-07T16:01:02;9.30;;;5.80;;
61962;SDS011;47927;42.646;23.096;2022-08-07T16:03:31;6.85;;;5.30;;
61962;SDS011;47927;42.646;23.096;2022-08-07T16:06:01;7.97;;;6.25;;
61962;SDS011;47927;42.646;23.096;2022-08-07T16:08:29;7.97;;;5.45;;
61962;SDS011;47927;42.646;23.096;2022-08-07T16:11:01;9.50;;;5.97;;
61962;SDS011;47927;42.646;23.096;2022-08-07T16:21:48;9.68;;;6.05;;
61962;SDS011;47927;42.646;23.096;2022-08-07T16:27:40;6.93;;;5.80;;
61962;SDS011;47927;42.646;23.096;2022-08-07T16:30:15;7.20;;;6.18;;
61962;SDS011;47927;42.646;23.096;2022-08-07T16:32:51;7.70;;;6.03;;
61962;SDS011;47927;42.646;23.096;2022-08-07T16:35:35;6.97;;;6.10;;
61962;SDS011;47927;42.646;23.096;2022-08-07T16:41:22;8.95;;;6.40;;
61962;SDS011;47927;42.646;23.096;2022-08-07T16:44:15;8.32;;;6.10;;
61962;SDS011;47927;42.646;23.096;2022-08-07T16:52:48;8.68;;;6.38;;
61962;SDS011;47927;42.646;23.096;2022-08-07T16:55:41;9.82;;;6.35;;
61962;SDS011;47927;42.646;23.096;2022-08-07T16:58:21;8.02;;;6.13;;
61962;SDS011;47927;42.646;23.096;2022-08-07T17:03:42;10.48;;;6.43;;
61962;SDS011;47927;42.646;23.096;2022-08-07T17:06:28;6.70;;;6.00;;
61962;SDS011;47927;42.646;23.096;2022-08-07T17:09:13;7.57;;;6.47;;
61962;SDS011;47927;42.646;23.096;2022-08-07T17:11:56;8.45;;;6.15;;
61962;SDS011;47927;42.646;23.096;2022-08-07T17:25:52;7.68;;;6.20;;
61962;SDS011;47927;42.646;23.096;2022-08-07T17:31:08;9.85;;;6.70;;
61962;SDS011;47927;42.646;23.096;2022-08-07T17:33:37;9.50;;;6.85;;
61962;SDS011;47927;42.646;23.096;2022-08-07T17:36:12;15.55;;;8.10;;
61962;SDS011;47927;42.646;23.096;2022-08-07T17:42:09;8.93;;;6.53;;
61962;SDS011;47927;42.646;23.096;2022-08-07T17:44:46;10.30;;;6.70;;
61962;SDS011;47927;42.646;23.096;2022-08-07T17:47:16;9.88;;;6.78;;
61962;SDS011;47927;42.646;23.096;2022-08-07T17:50:02;8.65;;;6.90;;
61962;SDS011;47927;42.646;23.096;2022-08-07T17:52:54;9.25;;;6.55;;
61962;SDS011;47927;42.646;23.096;2022-08-07T17:55:27;8.45;;;6.32;;
61962;SDS011;47927;42.646;23.096;2022-08-07T17:58:08;9.13;;;6.88;;
61962;SDS011;47927;42.646;23.096;2022-08-07T18:00:41;9.63;;;6.90;;
61962;SDS011;47927;42.646;23.096;2022-08-07T18:03:55;7.88;;;6.70;;
61962;SDS011;47927;42.646;23.096;2022-08-07T18:06:11;9.75;;;6.47;;
61962;SDS011;47927;42.646;23.096;2022-08-07T18:11:22;8.55;;;6.47;;
61962;SDS011;47927;42.646;23.096;2022-08-07T18:18:55;8.88;;;6.43;;
61962;SDS011;47927;42.646;23.096;2022-08-07T18:21:32;7.85;;;7.05;;
61962;SDS011;47927;42.646;23.096;2022-08-07T18:35:50;9.85;;;6.60;;
61962;SDS011;47927;42.646;23.096;2022-08-07T18:41:18;8.30;;;6.68;;
61962;SDS011;47927;42.646;23.096;2022-08-07T18:52:09;9.60;;;6.40;;
61962;SDS011;47927;42.646;23.096;2022-08-07T18:55:34;7.40;;;6.00;;
61962;SDS011;47927;42.646;23.096;2022-08-07T18:57:45;7.20;;;6.00;;
61962;SDS011;47927;42.646;23.096;2022-08-07T19:00:19;8.75;;;6.47;;